Time;durP1;ratioP1;P1;durP2;ratioP2;P2;SDS_P1;SDS_P2;PMS_P1;PMS_P2;Temp;Humidity;BMP_temperature;BMP_pressure;BME280_temperature;BME280_humidity;BME280_pressure;Samples;Min_cycle;Max_cycle;Signal;HPM_P1;HPM_P2
2023/10/23 00:07:01;;;;;;;0.00;0.00;;;;;;;13.70;59.93;99700.75;5332986;26;20069;-93
2023/10/23 00:09:26;;;;;;;0.00;0.00;;;;;;;13.59;59.93;99705.66;5307441;26;20130;-95
2023/10/23 00:11:51;;;;;;;0.20;0.20;;;;;;;13.69;59.93;99711.28;5289351;26;20442;-94
2023/10/23 00:14:17;;;;;;;0.00;0.00;;;;;;;13.73;59.93;99711.13;5307272;26;20423;-94
2023/10/23 00:16:42;;;;;;;0.00;0.00;;;;;;;13.85;59.94;99708.84;5289254;26;20091;-93
2023/10/23 00:19:08;;;;;;;2.03;1.85;;;;;;;13.90;59.94;99701.63;5289466;26;20139;-95
2023/10/23 00:21:33;;;;;;;0.00;0.00;;;;;;;13.81;59.94;99702.91;5290284;26;20113;-95
2023/10/23 00:23:59;;;;;;;0.20;0.20;;;;;;;13.89;59.95;99710.38;5290194;26;20115;-95
2023/10/23 00:26:24;;;;;;;0.00;0.00;;;;;;;13.64;59.92;99706.28;5290393;26;20068;-95
2023/10/23 00:28:50;;;;;;;0.98;0.60;;;;;;;13.63;59.92;99708.97;5308531;26;20055;-95
2023/10/23 00:31:15;;;;;;;0.00;0.00;;;;;;;13.53;59.92;99719.00;5307964;26;20047;-95
2023/10/23 00:33:41;;;;;;;0.00;0.00;;;;;;;13.52;59.92;99717.31;5308238;26;20341;-94
2023/10/23 00:36:07;;;;;;;42.05;1.12;;;;;;;13.47;59.91;99719.25;5308654;26;20067;-95
2023/10/23 00:38:32;;;;;;;0.00;0.00;;;;;;;13.48;59.91;99715.72;5308389;26;20103;-96
2023/10/23 00:40:58;;;;;;;0.00;0.00;;;;;;;13.45;59.92;99721.09;5308844;26;20083;-95
2023/10/23 00:43:24;;;;;;;0.08;0.08;;;;;;;13.51;59.93;99718.22;5297901;26;20076;-95
2023/10/23 00:45:58;;;;;;;0.70;0.45;;;;;;;13.38;59.91;99720.50;5290081;26;20072;-94
2023/10/23 00:48:24;;;;;;;0.00;0.00;;;;;;;13.39;59.91;99726.59;5308479;26;20029;-96
2023/10/23 00:50:51;;;;;;;0.00;0.00;;;;;;;13.33;59.91;99734.72;5290012;26;20048;-94
2023/10/23 00:53:22;;;;;;;0.10;0.10;;;;;;;13.51;59.93;99728.69;5290322;26;20682;-94
2023/10/23 00:55:48;;;;;;;0.25;0.25;;;;;;;13.54;59.92;99722.47;5308570;26;20057;-95
2023/10/23 00:58:14;;;;;;;0.00;0.00;;;;;;;13.36;59.91;99721.50;5308374;26;20886;-95
2023/10/23 01:00:39;;;;;;;0.00;0.00;;;;;;;13.40;59.91;99723.06;5289991;26;20082;-95
2023/10/23 01:03:05;;;;;;;0.00;0.00;;;;;;;13.36;59.91;99711.91;5290107;26;20068;-95
2023/10/23 01:05:31;;;;;;;0.00;0.00;;;;;;;13.28;59.91;99716.63;5289487;26;20091;-94
2023/10/23 01:07:57;;;;;;;0.08;0.08;;;;;;;13.18;59.90;99718.75;5308051;26;20118;-95
2023/10/23 01:10:22;;;;;;;0.08;0.08;;;;;;;13.37;59.91;99716.22;5307957;26;20116;-95
2023/10/23 01:12:47;;;;;;;0.10;0.10;;;;;;;13.40;59.91;99713.44;5307302;26;22179;-95
2023/10/23 01:15:13;;;;;;;0.00;0.00;;;;;;;13.44;59.92;99715.00;5307982;26;20156;-95
2023/10/23 01:17:39;;;;;;;0.00;0.00;;;;;;;13.31;59.91;99713.88;5308230;26;20084;-95
2023/10/23 01:20:05;;;;;;;0.52;0.52;;;;;;;13.36;59.91;99724.13;5307692;26;20124;-95
2023/10/23 01:22:30;;;;;;;0.00;0.00;;;;;;;13.20;59.91;99730.00;5326493;26;20025;-95
2023/10/23 01:24:56;;;;;;;0.00;0.00;;;;;;;13.15;59.90;99729.31;5308531;26;20084;-95
2023/10/23 01:27:21;;;;;;;0.35;0.30;;;;;;;13.03;59.89;99729.84;5308069;26;20419;-95
2023/10/23 01:29:47;;;;;;;0.10;0.10;;;;;;;13.04;59.90;99731.56;5308716;26;20093;-95
2023/10/23 01:32:12;;;;;;;0.10;0.10;;;;;;;13.27;59.92;99729.75;5308750;26;20088;-96
2023/10/23 01:34:38;;;;;;;0.00;0.00;;;;;;;13.16;59.90;99728.41;5308747;26;20108;-95
2023/10/23 01:37:03;;;;;;;0.00;0.00;;;;;;;13.05;59.90;99722.81;5327058;26;20080;-92
2023/10/23 01:39:29;;;;;;;0.00;0.00;;;;;;;13.27;59.90;99727.16;5308672;26;20098;-95
2023/10/23 01:41:54;;;;;;;0.00;0.00;;;;;;;12.64;59.87;99734.13;5308875;26;20060;-94
2023/10/23 01:44:20;;;;;;;0.00;0.00;;;;;;;12.59;59.87;99734.31;5315694;26;20061;-95
2023/10/23 01:46:45;;;;;;;0.40;0.40;;;;;;;12.64;59.87;99732.34;5309597;26;20056;-94
2023/10/23 01:49:11;;;;;;;0.00;0.00;;;;;;;12.58;59.86;99737.84;5308622;26;20420;-95
2023/10/23 01:51:36;;;;;;;0.00;0.00;;;;;;;12.70;59.87;99723.41;5308996;26;20341;-95
2023/10/23 01:54:02;;;;;;;0.00;0.00;;;;;;;12.55;59.87;99722.28;5308591;26;20315;-96
2023/10/23 01:56:27;;;;;;;0.00;0.00;;;;;;;12.56;59.87;99731.81;5308816;26;20068;-95
2023/10/23 01:58:52;;;;;;;0.00;0.00;;;;;;;12.47;59.86;99724.34;5308382;26;20064;-96
2023/10/23 02:01:22;;;;;;;0.00;0.00;;;;;;;12.41;59.86;99724.59;5308939;26;20099;-96
2023/10/23 02:03:48;;;;;;;0.00;0.00;;;;;;;12.49;59.87;99732.97;5309197;26;20063;-96
2023/10/23 02:06:14;;;;;;;0.00;0.00;;;;;;;12.53;59.87;99724.09;5308577;26;20061;-96
2023/10/23 02:08:39;;;;;;;0.00;0.00;;;;;;;12.51;59.87;99744.19;5307713;26;20106;-96
2023/10/23 02:11:04;;;;;;;0.00;0.00;;;;;;;12.48;59.86;99736.47;5308443;26;20120;-95
2023/10/23 02:13:30;;;;;;;0.00;0.00;;;;;;;12.43;59.86;99728.84;5308392;26;20068;-94
2023/10/23 02:15:55;;;;;;;0.00;0.00;;;;;;;12.34;59.85;99734.44;5308622;26;20078;-94
2023/10/23 02:18:21;;;;;;;0.00;0.00;;;;;;;12.34;59.85;99728.38;5308229;26;20903;-95
2023/10/23 02:20:46;;;;;;;0.00;0.00;;;;;;;12.35;59.85;99733.53;5308761;26;20417;-96
2023/10/23 02:23:11;;;;;;;0.20;0.10;;;;;;;12.34;59.85;99736.19;5308441;26;20108;-96
2023/10/23 02:25:37;;;;;;;0.10;0.10;;;;;;;12.44;59.87;99734.91;5307854;26;25181;-96
2023/10/23 02:28:03;;;;;;;0.10;0.10;;;;;;;12.42;59.86;99731.50;5308554;26;20064;-93
2023/10/23 02:30:28;;;;;;;0.00;0.00;;;;;;;12.42;59.86;99734.97;5308653;26;20096;-94
2023/10/23 02:32:54;;;;;;;0.00;0.00;;;;;;;12.10;59.84;99735.38;5308594;26;20130;-95
2023/10/23 02:35:20;;;;;;;0.00;0.00;;;;;;;12.22;59.85;99738.34;5308937;26;20056;-96
2023/10/23 02:37:45;;;;;;;0.00;0.00;;;;;;;12.15;59.85;99734.28;5309348;26;20074;-96
2023/10/23 02:40:11;;;;;;;0.00;0.00;;;;;;;12.25;59.85;99725.19;5308650;26;20063;-95
2023/10/23 02:42:37;;;;;;;0.00;0.00;;;;;;;12.07;59.84;99744.19;5308976;26;20082;-96
2023/10/23 02:45:03;;;;;;;0.00;0.00;;;;;;;11.85;59.83;99740.69;5316179;26;20052;-95
2023/10/23 02:47:28;;;;;;;0.00;0.00;;;;;;;11.89;59.83;99739.66;5314087;26;20048;-96
2023/10/23 02:49:54;;;;;;;0.00;0.00;;;;;;;11.86;59.83;99747.59;5309512;26;20068;-95
2023/10/23 02:52:20;;;;;;;0.00;0.00;;;;;;;11.93;59.83;99739.47;5308912;26;20119;-96
2023/10/23 02:54:46;;;;;;;0.32;0.10;;;;;;;12.09;59.84;99741.53;5309024;26;20491;-96
2023/10/23 02:57:11;;;;;;;1.90;0.75;;;;;;;11.98;59.84;99745.38;5308985;26;20078;-96
2023/10/23 03:02:49;;;;;;;0.00;0.00;;;;;;;11.80;59.82;99740.84;5355017;26;20170;-94
2023/10/23 03:05:15;;;;;;;0.00;0.00;;;;;;;11.81;59.82;99746.91;5307884;26;20112;-95
2023/10/23 03:07:42;;;;;;;0.00;0.00;;;;;;;12.16;59.85;99745.59;5308200;26;20068;-95
2023/10/23 03:10:08;;;;;;;0.00;0.00;;;;;;;11.86;59.83;99750.22;5308360;26;20060;-95
2023/10/23 03:12:35;;;;;;;0.00;0.00;;;;;;;11.83;59.83;99755.50;5308770;26;20039;-96
2023/10/23 03:15:02;;;;;;;0.00;0.00;;;;;;;11.88;59.83;99758.81;5290250;26;20063;-95
2023/10/23 03:17:27;;;;;;;0.10;0.05;;;;;;;12.00;59.84;99753.12;5308531;26;20052;-96
2023/10/23 03:19:53;;;;;;;0.52;0.32;;;;;;;12.09;59.84;99763.25;5308374;26;20098;-96
2023/10/23 03:22:19;;;;;;;0.00;0.00;;;;;;;11.76;59.83;99757.47;5308670;26;20126;-95
2023/10/23 03:24:45;;;;;;;0.00;0.00;;;;;;;11.78;59.83;99758.28;5308889;26;20064;-96
2023/10/23 03:27:10;;;;;;;0.00;0.00;;;;;;;11.74;59.82;99751.47;5308987;26;20401;-96
2023/10/23 03:29:35;;;;;;;0.00;0.00;;;;;;;11.89;59.83;99753.56;5309811;26;20159;-95
2023/10/23 03:32:01;;;;;;;0.00;0.00;;;;;;;12.10;59.84;99756.25;5309464;26;20088;-96
2023/10/23 03:34:26;;;;;;;0.08;0.08;;;;;;;11.98;59.84;99758.41;5311237;26;20070;-95
2023/10/23 03:36:52;;;;;;;0.00;0.00;;;;;;;12.03;59.84;99760.00;5311488;26;20095;-96
2023/10/23 03:39:18;;;;;;;0.00;0.00;;;;;;;12.13;59.84;99759.59;5308743;26;20107;-95
2023/10/23 03:41:43;;;;;;;0.00;0.00;;;;;;;11.95;59.83;99755.91;5308398;26;20060;-95
2023/10/23 03:44:12;;;;;;;0.00;0.00;;;;;;;12.03;59.84;99760.00;5327864;26;20092;-96
2023/10/23 03:46:40;;;;;;;0.15;0.10;;;;;;;12.09;59.84;99762.38;5340698;26;20059;-96
2023/10/23 03:49:05;;;;;;;0.05;0.05;;;;;;;12.05;59.84;99760.78;5312458;26;20077;-95
2023/10/23 03:51:31;;;;;;;0.00;0.00;;;;;;;12.00;59.84;99760.97;5311001;26;20067;-96
2023/10/23 03:53:56;;;;;;;0.00;0.00;;;;;;;12.01;59.84;99761.81;5310511;26;20063;-96
2023/10/23 03:56:22;;;;;;;0.03;0.03;;;;;;;11.91;59.84;99766.53;5310700;26;20415;-95
2023/10/23 03:58:48;;;;;;;0.00;0.00;;;;;;;11.95;59.83;99762.91;5310689;26;20064;-95
2023/10/23 04:01:14;;;;;;;0.00;0.00;;;;;;;11.99;59.84;99765.31;5329123;26;20741;-95
2023/10/23 04:03:39;;;;;;;0.10;0.08;;;;;;;12.06;59.85;99765.09;5311340;26;20070;-96
2023/10/23 04:06:05;;;;;;;0.00;0.00;;;;;;;12.05;59.84;99779.03;5310865;26;20087;-96
2023/10/23 04:08:31;;;;;;;0.00;0.00;;;;;;;12.01;59.84;99777.47;5311614;26;20098;-95
2023/10/23 04:10:58;;;;;;;0.00;0.00;;;;;;;12.08;59.85;99773.75;5312020;26;20433;-95
2023/10/23 04:13:23;;;;;;;0.20;0.20;;;;;;;11.95;59.83;99783.75;5310902;26;20158;-96
2023/10/23 04:15:52;;;;;;;0.00;0.00;;;;;;;11.89;59.83;99778.78;5309441;26;20397;-94
2023/10/23 04:18:17;;;;;;;0.00;0.00;;;;;;;12.16;59.85;99780.34;5327805;26;20114;-95
2023/10/23 04:20:43;;;;;;;0.00;0.00;;;;;;;11.91;59.84;99784.78;5308899;26;20500;-96
2023/10/23 04:23:08;;;;;;;0.00;0.00;;;;;;;11.84;59.83;99785.94;5309472;26;20716;-95
2023/10/23 04:25:33;;;;;;;0.00;0.00;;;;;;;12.15;59.85;99790.84;5308979;26;20048;-95
2023/10/23 04:27:59;;;;;;;0.00;0.00;;;;;;;12.09;59.84;99791.09;5309020;26;20373;-94
2023/10/23 04:30:24;;;;;;;0.00;0.00;;;;;;;11.95;59.83;99795.06;5308988;26;20374;-95
2023/10/23 04:32:50;;;;;;;0.00;0.00;;;;;;;11.82;59.82;99795.53;5309529;26;20056;-96
2023/10/23 04:35:15;;;;;;;0.00;0.00;;;;;;;11.79;59.83;99790.44;5310155;26;20056;-96
2023/10/23 04:37:41;;;;;;;0.80;0.60;;;;;;;11.94;59.83;99782.91;5309860;26;20068;-96
2023/10/23 04:40:07;;;;;;;0.00;0.00;;;;;;;11.86;59.83;99791.94;5310918;26;20385;-96
2023/10/23 04:42:33;;;;;;;0.20;0.20;;;;;;;11.73;59.82;99795.84;5311321;26;20060;-96
2023/10/23 04:44:58;;;;;;;0.00;0.00;;;;;;;11.76;59.83;99793.97;5309484;26;20102;-96
2023/10/23 04:48:08;;;;;;;0.00;0.00;;;;;;;11.75;59.83;99794.87;5324871;26;20042;-95
2023/10/23 04:54:46;;;;;;;0.10;0.10;;;;;;;11.85;59.83;99800.66;5288008;27;20198;-96
2023/10/23 04:57:35;;;;;;;0.00;0.00;;;;;;;12.04;59.84;99800.81;5287237;27;20036;-96
2023/10/23 05:00:09;;;;;;;0.00;0.00;;;;;;;12.15;59.85;99802.13;5291660;27;20037;-96
2023/10/23 05:02:35;;;;;;;0.00;0.00;;;;;;;11.97;59.84;99797.59;5270452;27;20177;-96
2023/10/23 05:05:06;;;;;;;0.00;0.00;;;;;;;11.85;59.83;99792.84;5265024;27;20134;-96
2023/10/23 05:11:44;;;;;;;0.00;0.00;;;;;;;11.85;59.83;99792.84;5296230;27;20065;-96
2023/10/23 05:15:03;;;;;;;0.00;0.00;;;;;;;11.97;59.83;99792.38;5223237;27;20073;-96
2023/10/23 05:25:13;;;;;;;0.00;0.00;;;;;;;11.96;59.83;99793.28;5170839;27;20051;-96
2023/10/23 05:27:52;;;;;;;0.00;0.00;;;;;;;12.07;59.84;99795.53;5214124;27;20038;-96
2023/10/23 05:30:42;;;;;;;0.00;0.00;;;;;;;12.18;59.85;99790.72;5271159;27;20028;-96
2023/10/23 05:33:36;;;;;;;0.00;0.00;;;;;;;12.21;59.86;99790.63;5234543;27;20036;-96
2023/10/23 05:36:13;;;;;;;0.00;0.00;;;;;;;12.20;59.84;99794.97;5272115;27;20062;-96
2023/10/23 05:38:47;;;;;;;0.00;0.00;;;;;;;12.14;59.85;99800.44;5242827;27;20057;-96
2023/10/23 05:41:19;;;;;;;0.00;0.00;;;;;;;12.27;59.85;99809.50;5249517;27;20077;-96
2023/10/23 05:55:17;;;;;;;0.13;0.13;;;;;;;12.42;59.85;99825.50;5253576;27;20073;-96
2023/10/23 06:01:31;;;;;;;0.28;0.28;;;;;;;12.58;59.86;99837.91;5193060;27;20090;-96
2023/10/23 06:04:04;;;;;;;0.00;0.00;;;;;;;12.60;59.87;99833.47;5185782;27;20031;-96
2023/10/23 06:06:35;;;;;;;0.00;0.00;;;;;;;12.60;59.87;99837.84;5175334;27;20025;-96
2023/10/23 06:09:16;;;;;;;0.03;0.03;;;;;;;12.55;59.87;99837.19;5166189;27;20087;-96
2023/10/23 06:12:21;;;;;;;0.00;0.00;;;;;;;12.66;59.86;99841.97;5194367;27;20067;-96
2023/10/23 06:15:18;;;;;;;0.00;0.00;;;;;;;12.70;59.87;99840.94;5222161;27;20049;-96
2023/10/23 06:18:02;;;;;;;0.00;0.00;;;;;;;12.94;59.89;99842.56;5241135;27;20081;-96
2023/10/23 06:20:28;;;;;;;0.00;0.00;;;;;;;13.05;59.90;99842.16;5232375;27;20109;-96
2023/10/23 06:23:27;;;;;;;0.00;0.00;;;;;;;13.23;59.90;99848.41;5272102;27;20050;-96
2023/10/23 06:26:50;;;;;;;0.00;0.00;;;;;;;13.43;59.92;99845.81;5291690;27;20520;-96
2023/10/23 06:29:27;;;;;;;0.17;0.17;;;;;;;13.37;59.91;99848.69;5289154;27;20025;-96
2023/10/23 06:32:24;;;;;;;0.00;0.00;;;;;;;13.46;59.92;99850.91;5292391;27;20033;-96
2023/10/23 06:35:19;;;;;;;0.15;0.15;;;;;;;13.55;59.92;99841.84;5290797;27;20037;-96
2023/10/23 06:38:07;;;;;;;0.00;0.00;;;;;;;13.71;59.93;99845.47;5287158;27;20112;-96
2023/10/23 06:40:38;;;;;;;0.00;0.00;;;;;;;13.87;59.93;99843.91;5262051;27;20196;-95
2023/10/23 06:43:03;;;;;;;0.00;0.00;;;;;;;13.93;59.94;99853.25;5260409;27;20136;-95
2023/10/23 06:45:29;;;;;;;0.00;0.00;;;;;;;14.12;59.95;99846.28;5238128;27;20172;-95
2023/10/23 06:47:54;;;;;;;0.22;0.22;;;;;;;14.16;59.95;99842.59;5246984;27;20069;-94
2023/10/23 06:50:19;;;;;;;0.25;0.25;;;;;;;14.30;59.96;99839.38;5246635;27;20124;-95
2023/10/23 06:52:45;;;;;;;0.10;0.10;;;;;;;14.53;59.97;99844.44;5278552;27;20116;-95
2023/10/23 06:55:17;;;;;;;0.00;0.00;;;;;;;14.69;59.98;99839.34;5280410;27;20049;-94
2023/10/23 06:57:43;;;;;;;0.32;0.20;;;;;;;14.90;59.99;99833.03;5288093;27;20578;-95
2023/10/23 07:00:09;;;;;;;0.00;0.00;;;;;;;15.15;60.00;99827.47;5267254;27;20137;-95
2023/10/23 07:02:34;;;;;;;1.30;0.47;;;;;;;15.21;60.01;99834.19;5267141;27;20103;-95
2023/10/23 07:04:59;;;;;;;0.00;0.00;;;;;;;15.32;60.01;99830.09;5266887;27;20080;-95
2023/10/23 07:07:30;;;;;;;0.22;0.22;;;;;;;15.51;60.02;99835.25;5303177;26;20124;-96
2023/10/23 07:09:58;;;;;;;0.10;0.10;;;;;;;15.60;60.03;99840.06;5308687;26;20077;-96
2023/10/23 07:12:24;;;;;;;0.00;0.00;;;;;;;15.71;60.04;99841.28;5308549;26;20060;-95
2023/10/23 07:14:50;;;;;;;0.13;0.13;;;;;;;15.84;60.03;99840.56;5309273;26;20103;-96
2023/10/23 07:17:15;;;;;;;0.15;0.15;;;;;;;15.98;60.05;99845.09;5308694;26;20143;-93
2023/10/23 07:19:41;;;;;;;0.60;0.60;;;;;;;16.07;60.05;99841.97;5307615;26;20060;-95
2023/10/23 07:22:06;;;;;;;1.98;1.35;;;;;;;16.18;60.06;99844.06;5307566;26;20063;-94
2023/10/23 07:24:32;;;;;;;0.20;0.20;;;;;;;16.39;60.07;99836.78;5307326;26;20091;-93
2023/10/23 07:27:00;;;;;;;0.20;0.20;;;;;;;16.39;60.07;99835.00;5307988;26;20095;-93
2023/10/23 07:29:26;;;;;;;0.00;0.00;;;;;;;16.30;60.06;99845.16;5308572;26;20074;-95
2023/10/23 07:31:51;;;;;;;0.00;0.00;;;;;;;16.50;60.08;99843.16;5308734;26;20056;-95
2023/10/23 07:34:17;;;;;;;0.00;0.00;;;;;;;16.30;60.06;99843.38;5308865;26;20068;-92
2023/10/23 07:36:42;;;;;;;0.17;0.17;;;;;;;16.39;60.07;99853.41;5308456;26;20068;-94
2023/10/23 07:39:08;;;;;;;0.20;0.20;;;;;;;16.49;60.08;99845.84;5308651;26;20100;-93
2023/10/23 07:41:33;;;;;;;0.10;0.10;;;;;;;16.57;60.08;99851.56;5308564;26;20045;-94
2023/10/23 07:43:59;;;;;;;0.37;0.37;;;;;;;16.72;60.09;99858.63;5308762;26;20144;-94
2023/10/23 07:46:24;;;;;;;0.57;0.57;;;;;;;16.71;60.09;99854.28;5308563;26;20072;-94
2023/10/23 07:48:50;;;;;;;0.00;0.00;;;;;;;16.74;60.09;99867.25;5331936;26;20058;-93
2023/10/23 07:51:15;;;;;;;0.00;0.00;;;;;;;16.74;60.09;99858.53;5311536;26;20052;-95
2023/10/23 07:53:41;;;;;;;0.15;0.15;;;;;;;16.78;60.09;99875.81;5308863;26;20080;-93
2023/10/23 07:56:06;;;;;;;0.10;0.10;;;;;;;16.94;60.10;99867.94;5308446;26;20064;-94
2023/10/23 07:58:32;;;;;;;0.28;0.17;;;;;;;16.73;60.09;99873.44;5308830;26;20056;-95
2023/10/23 08:01:04;;;;;;;0.05;0.05;;;;;;;16.99;60.10;99868.53;5308667;26;20440;-93
2023/10/23 08:03:39;;;;;;;0.20;0.20;;;;;;;17.02;60.11;99860.44;5310539;26;20493;-96
2023/10/23 08:06:06;;;;;;;1.25;0.88;;;;;;;17.17;60.12;99857.81;5329015;26;20126;-96
2023/10/23 08:08:37;;;;;;;0.08;0.08;;;;;;;17.17;60.12;99854.31;5328982;26;20057;-95
2023/10/23 08:11:06;;;;;;;0.52;0.52;;;;;;;17.25;60.12;99857.34;5311819;26;20028;-96
2023/10/23 08:13:34;;;;;;;0.17;0.17;;;;;;;17.27;60.12;99850.25;5336235;26;20042;-96
2023/10/23 08:16:00;;;;;;;0.03;0.03;;;;;;;17.30;60.12;99849.22;5297185;26;20823;-96
2023/10/23 08:18:25;;;;;;;0.37;0.32;;;;;;;17.46;60.13;99839.47;5310447;26;20052;-96
2023/10/23 08:20:51;;;;;;;1.23;1.08;;;;;;;17.41;60.13;99842.38;5309658;26;20299;-95
2023/10/23 08:23:19;;;;;;;0.62;0.62;;;;;;;17.55;60.13;99840.75;5307025;26;20447;-96
2023/10/23 08:25:45;;;;;;;1.12;1.02;;;;;;;17.49;60.13;99839.28;5326319;26;20091;-92
2023/10/23 08:28:10;;;;;;;6.55;0.32;;;;;;;17.44;60.12;99844.81;5307544;26;20386;-94
2023/10/23 08:30:36;;;;;;;0.52;0.52;;;;;;;17.68;60.14;99849.63;5326360;26;20100;-94
2023/10/23 08:33:03;;;;;;;0.28;0.28;;;;;;;17.81;60.15;99844.47;5308029;26;20065;-94
2023/10/23 08:35:28;;;;;;;0.08;0.08;;;;;;;17.75;60.14;99843.91;5308304;26;20079;-96
2023/10/23 08:37:54;;;;;;;0.65;0.65;;;;;;;17.98;60.15;99837.25;5308706;26;20056;-94
2023/10/23 08:40:21;;;;;;;30.60;1.87;;;;;;;18.16;60.17;99834.41;5308261;26;20029;-93
2023/10/23 08:42:47;;;;;;;0.32;0.32;;;;;;;18.26;60.17;99836.41;5308062;26;20065;-94
2023/10/23 08:45:14;;;;;;;0.60;0.43;;;;;;;18.12;60.16;99833.75;5308139;26;20113;-94
2023/10/23 08:47:39;;;;;;;1.00;0.80;;;;;;;18.34;60.18;99828.00;5308991;26;20813;-94
2023/10/23 08:50:05;;;;;;;0.43;0.43;;;;;;;18.48;60.18;99824.50;5315951;26;20068;-94
2023/10/23 08:52:35;;;;;;;0.00;0.00;;;;;;;18.55;60.19;99824.00;5309339;26;20091;-93
2023/10/23 08:55:01;;;;;;;0.05;0.05;;;;;;;18.73;60.19;99822.03;5308751;26;20497;-92
2023/10/23 08:57:27;;;;;;;0.80;0.75;;;;;;;18.95;60.21;99827.59;5308613;26;20078;-95
2023/10/23 08:59:52;;;;;;;0.00;0.00;;;;;;;18.95;60.21;99819.69;5308556;26;20403;-94
2023/10/23 09:02:17;;;;;;;0.15;0.15;;;;;;;19.00;60.21;99822.03;5308447;26;20158;-94
2023/10/23 09:04:43;;;;;;;0.22;0.22;;;;;;;19.19;60.22;99822.50;5308389;26;20088;-94
2023/10/23 09:07:08;;;;;;;0.00;0.00;;;;;;;19.12;60.22;99826.47;5307975;26;20060;-95
2023/10/23 09:09:34;;;;;;;0.62;0.30;;;;;;;19.17;60.22;99829.69;5308692;26;20057;-93
2023/10/23 09:12:03;;;;;;;0.32;0.30;;;;;;;19.30;60.22;99827.06;5308663;26;20099;-94
2023/10/23 09:14:31;;;;;;;0.37;0.37;;;;;;;19.51;60.23;99822.12;5326970;26;20121;-94
2023/10/23 09:16:56;;;;;;;0.93;0.93;;;;;;;19.58;60.24;99831.34;5308720;26;20482;-94
2023/10/23 09:19:32;;;;;;;0.77;0.32;;;;;;;19.57;60.24;99830.50;5308302;26;20052;-94
2023/10/23 09:21:58;;;;;;;0.55;0.47;;;;;;;19.73;60.25;99832.97;5326738;26;20159;-94
2023/10/23 09:24:24;;;;;;;1.25;0.40;;;;;;;19.91;60.26;99830.84;5326634;26;20120;-95
2023/10/23 09:26:50;;;;;;;0.00;0.00;;;;;;;19.96;60.26;99819.97;5326720;26;20109;-94
2023/10/23 09:29:20;;;;;;;0.20;0.20;;;;;;;19.95;60.26;99821.75;5327184;26;20114;-94
2023/10/23 09:31:45;;;;;;;0.10;0.10;;;;;;;19.99;60.26;99817.09;5308920;26;20071;-94
2023/10/23 09:34:12;;;;;;;0.10;0.10;;;;;;;20.12;60.27;99820.59;5307983;26;20357;-94
2023/10/23 09:44:48;;;;;;;1.75;0.52;;;;;;;20.45;60.29;99815.56;5342554;26;20081;-95
2023/10/23 09:55:09;;;;;;;0.20;0.20;;;;;;;20.88;60.32;99828.34;5214221;26;20166;-96
2023/10/23 10:06:17;;;;;;;0.40;0.40;;;;;;;21.31;60.33;99806.66;5212746;27;20273;31
2023/10/23 10:19:46;;;;;;;0.20;0.20;;;;;;;21.91;60.36;99794.94;5323004;26;20035;-96
2023/10/23 10:22:26;;;;;;;0.00;0.00;;;;;;;21.79;60.35;99798.56;5269530;26;20060;-96
2023/10/23 10:24:53;;;;;;;;;;;;;;;21.83;60.36;99802.66;5302549;26;20036;-96
2023/10/23 10:27:25;;;;;;;0.57;0.57;;;;;;;21.81;60.36;99802.78;5331770;26;19943;-96
2023/10/23 10:30:16;;;;;;;;;;;;;;;;;;;;;
2023/10/23 10:32:51;;;;;;;0.28;0.28;;;;;;;21.97;60.37;99797.94;5326246;26;35447;-96
2023/10/23 10:41:27;;;;;;;0.00;0.00;;;;;;;21.97;60.38;99781.22;5322504;26;20082;-95
2023/10/23 10:45:20;;;;;;;0.00;0.00;;;;;;;21.92;60.36;99778.94;5354750;26;20025;-96
2023/10/23 10:48:04;;;;;;;0.08;0.08;;;;;;;22.16;60.38;99772.69;5284049;27;20034;-96
2023/10/23 10:53:49;;;;;;;0.17;0.15;;;;;;;22.23;60.38;99772.06;5213054;27;20037;-96
2023/10/23 10:56:51;;;;;;;0.10;0.10;;;;;;;22.34;60.40;99779.19;5298257;26;20036;-96
2023/10/23 10:59:49;;;;;;;0.03;0.03;;;;;;;22.22;60.39;99780.13;5337324;26;20025;-96
2023/10/23 11:11:41;;;;;;;0.45;0.45;;;;;;;22.36;60.40;99777.25;5292748;26;20157;31
2023/10/23 11:14:07;;;;;;;0.00;0.00;;;;;;;22.44;60.39;99779.28;5273360;26;20068;-96
2023/10/23 11:16:45;;;;;;;0.00;0.00;;;;;;;22.47;60.40;99779.00;5311902;26;20074;-96
2023/10/23 11:19:24;;;;;;;0.00;0.00;;;;;;;22.59;60.41;99775.38;5316581;26;781572;-96
2023/10/23 11:22:42;;;;;;;0.10;0.10;;;;;;;22.77;60.42;99770.41;5329892;26;20021;-96
2023/10/23 11:25:28;;;;;;;0.10;0.10;;;;;;;22.74;60.42;99771.50;5337044;26;20035;-96
2023/10/23 11:28:05;;;;;;;0.32;0.30;;;;;;;22.80;60.43;99762.19;5337371;26;20035;-96
2023/10/23 11:30:46;;;;;;;0.30;0.30;;;;;;;22.76;60.41;99753.62;5336348;26;20021;-95
2023/10/23 11:33:26;;;;;;;0.00;0.00;;;;;;;22.91;60.42;99751.53;5356934;26;20025;-95
2023/10/23 11:36:12;;;;;;;0.20;0.20;;;;;;;23.07;60.44;99751.94;5358088;26;20017;-96
2023/10/23 11:38:43;;;;;;;0.20;0.15;;;;;;;23.10;60.43;99737.56;5337652;26;20025;-96
2023/10/23 11:50:01;;;;;;;0.05;0.05;;;;;;;23.39;60.45;99712.03;5173811;26;20077;-96
2023/10/23 11:52:46;;;;;;;0.05;0.05;;;;;;;23.27;60.45;99699.81;5316737;27;20025;-96
2023/10/23 11:55:14;;;;;;;0.00;0.00;;;;;;;23.36;60.46;99701.66;5335660;26;20104;-96
2023/10/23 12:11:25;;;;;;;0.57;0.57;;;;;;;23.14;60.44;99693.84;5307232;27;20093;-96
2023/10/23 12:14:45;;;;;;;;;;;;;;;;;;;;;
2023/10/23 12:23:56;;;;;;;0.00;0.00;;;;;;;23.43;60.46;99680.75;5330401;27;20084;-96
2023/10/23 12:26:40;;;;;;;0.00;0.00;;;;;;;23.33;60.44;99669.22;5332249;27;20060;-96
2023/10/23 12:29:19;;;;;;;0.10;0.10;;;;;;;23.15;60.44;99684.91;5295763;27;20108;-96
2023/10/23 12:32:00;;;;;;;0.00;0.00;;;;;;;23.18;60.45;99685.47;5333194;27;20820;-96
2023/10/23 12:34:35;;;;;;;0.82;0.70;;;;;;;23.03;60.43;99693.94;5313042;27;20057;-96
2023/10/23 12:37:05;;;;;;;0.75;0.55;;;;;;;23.07;60.43;99690.03;5293818;27;20024;-96
2023/10/23 12:39:46;;;;;;;0.00;0.00;;;;;;;23.06;60.44;99688.34;5287552;27;20052;-96
2023/10/23 12:42:24;;;;;;;0.00;0.00;;;;;;;23.19;60.44;99692.50;5330224;27;20059;-96
2023/10/23 12:44:51;;;;;;;0.30;0.30;;;;;;;23.14;60.44;99680.56;5308765;27;20032;-96
2023/10/23 12:47:20;;;;;;;0.20;0.20;;;;;;;23.12;60.44;99682.53;5290400;27;20049;-96
2023/10/23 12:49:46;;;;;;;0.08;0.08;;;;;;;23.12;60.44;99687.81;5311953;27;20057;-96
2023/10/23 12:52:44;;;;;;;2.22;0.70;;;;;;;23.23;60.44;99682.47;5296575;26;20075;-95
2023/10/23 12:55:54;;;;;;;0.00;0.00;;;;;;;23.20;60.45;99693.34;5312428;27;20079;-96
2023/10/23 12:58:19;;;;;;;0.95;0.88;;;;;;;23.28;60.45;99682.91;5309211;27;20029;-96
2023/10/23 13:01:29;;;;;;;1.48;0.70;;;;;;;23.42;60.46;99685.22;5290720;27;20060;-96
2023/10/23 13:03:59;;;;;;;;;;;;;;;23.23;60.44;99677.16;5309200;27;20722;-96
2023/10/23 13:06:54;;;;;;;0.37;0.37;;;;;;;23.22;60.44;99673.66;5311985;27;19968;-96
2023/10/23 13:09:29;;;;;;;0.15;0.15;;;;;;;23.21;60.44;99671.13;5329902;27;20048;-96
2023/10/23 13:12:34;;;;;;;0.88;0.22;;;;;;;22.99;60.44;99668.63;5313180;27;20749;-96
2023/10/23 13:15:04;;;;;;;0.20;0.20;;;;;;;23.06;60.44;99656.50;5308294;27;20060;-96
2023/10/23 13:17:36;;;;;;;;;;;;;;;22.93;60.43;99667.31;5313394;27;20052;-96
2023/10/23 13:20:28;;;;;;;0.00;0.00;;;;;;;;;;5333219;27;19979;-96
2023/10/23 13:23:02;;;;;;;0.03;0.03;;;;;;;23.22;60.45;99660.38;5307334;27;20061;-96
2023/10/23 13:25:34;;;;;;;0.00;0.00;;;;;;;23.13;60.45;99649.69;5333662;27;20039;-96
2023/10/23 13:28:06;;;;;;;1.87;0.52;;;;;;;23.00;60.43;99652.56;5311817;27;20049;-96
2023/10/23 13:30:34;;;;;;;1.52;0.55;;;;;;;23.18;60.45;99650.97;5311722;27;20052;-96
2023/10/23 13:33:18;;;;;;;0.00;0.00;;;;;;;22.93;60.43;99657.53;5311935;27;20028;-96
2023/10/23 13:35:48;;;;;;;0.00;0.00;;;;;;;22.94;60.43;99659.19;5311013;27;20032;-96
2023/10/23 13:41:58;;;;;;;0.37;0.25;;;;;;;22.83;60.43;99659.28;5312773;27;19955;-96
2023/10/23 13:44:32;;;;;;;0.13;0.13;;;;;;;22.88;60.43;99651.78;5269935;27;20069;-96
2023/10/23 13:47:00;;;;;;;0.35;0.35;;;;;;;22.83;60.42;99656.63;5314076;27;21318;-96
2023/10/23 13:49:29;;;;;;;1.33;1.15;;;;;;;22.84;60.42;99647.69;5317691;27;20052;-96
2023/10/23 13:51:59;;;;;;;0.10;0.10;;;;;;;22.86;60.42;99653.72;5314136;27;20035;-95
2023/10/23 13:55:19;;;;;;;0.00;0.00;;;;;;;22.99;60.44;99642.91;5315761;27;20446;-96
2023/10/23 13:58:08;;;;;;;0.13;0.13;;;;;;;22.94;60.43;99639.78;5281697;27;20853;-96
2023/10/23 14:01:03;;;;;;;0.15;0.10;;;;;;;23.04;60.44;99638.03;5281852;27;20056;-96
2023/10/23 14:03:29;;;;;;;0.60;0.60;;;;;;;23.25;60.45;99636.22;5285446;27;20476;-96